Skip Navigation Links
NOAA logo - Click to go to the NOAA homepage
NOAA's National Weather Service
Alaska Aviation Weather Unit
  NWS logo - Click to go to the NWS homepage
Left Navbar Graphic     09 AKDT = 17 GMT

   
NOAA is celebrating 200 years of science, service, and stewardship. Visit the NOAA 200th celebration Web site to learn more.
USA.gov is the U.S. Government's official Web portal to all Federal, state and local government Web resources and services.
Facebook
NWS on Facebook

Important Change Regarding the AAWU Web Presence

 

Over the last several months, the AAWU has been working to navigate its webpages to a nationally supported server. Security, as well as other needs, have necessitated the change.  In the process, we have made an effort to enhance the functionality of our website, as well as some of our products. As of June 20, 2017, aawu.arh.noaa.gov will be discontinued. The new AAWU web address is weather.gov/aawu. It is now live and will run in-parallel with the old site until it is discontinued. Please send any feedback or questions regarding the new webpages to nws.ar.aawu.webauthors@noaa.gov.  Thank you for your patience during this time of transition.
AAWU Home :: Display TAF Add Bookmark
TAF PAQT 291124Z 2912/3012 08015KT P6SM SCT015 BKN100 BKN150
     FM291500 07020KT 4SM BR BKN007 OVC015
     FM291800 07020G30KT 1 1/2SM BR OVC007=

METAR PAQT 291153Z AUTO 07016KT 10SM CLR 00/M01 A3000 RMK AO2 SLP160 T00001011 10022 20000 58010 TSNO= METAR PAQT 291253Z AUTO 07016KT 10SM CLR 01/M01 A2999 RMK AO2 PK WND 06026/1239 SLP156 T00061011 TSNO= METAR PAQT 291353Z AUTO 07019G26KT 10SM CLR 01/M01 A2997 RMK AO2 PK WND 07027/1341 SLP149 T00061011 TSNO= PAQT 291441Z AUTO 07019G28KT 10SM BKN010 01/M01 A2997= METAR PAQT 291453Z AUTO 08018G27KT 10SM OVC011 01/M01 A2997 RMK AO2 PK WND 08029/1419 SLP148 T00061011 56012 TSNO= PAQT 291539Z AUTO 07023G30KT 10SM OVC009 00/M01 A2996= METAR PAQT 291553Z AUTO 08022G29KT 10SM OVC009 00/M01 A2996 RMK AO2 PK WND 08030/1531 SLP146 T00001011 TSNO= METAR PAQT 291653Z AUTO 08017G27KT 10SM OVC008 01/M01 A2996 RMK AO2 PK WND 08028/1605 SLP146 T00061011 TSNO=
 Alaska TAF Map

NOAA's National Weather Service
Alaska Aviation Weather Unit
6930 Sand Lake Road
Anchorage, AK 99502-1845
Disclaimer
Credits
Glossary
Privacy Policy
About Us
Career Opportunities
Contact AAWU Internet Services Site last modified: April, 17th 2012